Time;durP1;ratioP1;P1;durP2;ratioP2;P2;SDS_P1;SDS_P2;PMS_P1;PMS_P2;Temp;Humidity;BMP_temperature;BMP_pressure;BME280_temperature;BME280_humidity;BME280_pressure;Samples;Min_cycle;Max_cycle;Signal;HPM_P1;HPM_P2
2021/12/02 00:01:16;;;;;;;5.85;1.88;;;5.20;87.60;;;;;;5092203;28;20506;-79
2021/12/02 00:03:43;;;;;;;7.70;2.13;;;5.20;87.60;;;;;;5092255;28;20031;-79
2021/12/02 00:06:12;;;;;;;5.05;1.83;;;5.20;87.70;;;;;;5093286;28;20055;-79
2021/12/02 00:08:38;;;;;;;5.35;1.65;;;5.20;87.80;;;;;;5093524;28;20479;-80
2021/12/02 00:11:05;;;;;;;4.88;1.63;;;5.30;87.70;;;;;;5092092;28;20047;-79
2021/12/02 00:13:37;;;;;;;5.35;1.70;;;5.30;87.70;;;;;;5092334;28;20024;-79
2021/12/02 00:16:20;;;;;;;5.65;1.60;;;5.40;87.60;;;;;;5092172;28;20111;-79
2021/12/02 00:21:18;;;;;;;9.57;1.77;;;5.50;87.20;;;;;;5093633;28;20036;-79
2021/12/02 00:24:04;;;;;;;12.75;1.70;;;5.50;86.90;;;;;;5093522;28;20036;-79
2021/12/02 00:26:32;;;;;;;5.70;1.30;;;5.50;86.50;;;;;;5093167;28;20379;-79
2021/12/02 00:29:00;;;;;;;5.53;1.35;;;5.50;86.50;;;;;;5091805;28;20050;-79
2021/12/02 00:31:29;;;;;;;5.55;1.40;;;5.50;86.60;;;;;;5092071;28;20032;-80
2021/12/02 00:34:06;;;;;;;5.13;1.30;;;5.50;86.70;;;;;;5091814;28;20549;-81
2021/12/02 00:36:33;;;;;;;4.05;1.17;;;5.50;86.80;;;;;;5093246;28;20055;-80
2021/12/02 00:39:03;;;;;;;7.50;1.77;;;5.50;87.00;;;;;;5091678;28;20032;-80
2021/12/02 00:41:29;;;;;;;6.13;1.85;;;5.50;87.00;;;;;;5091950;28;20481;-81
2021/12/02 00:43:56;;;;;;;6.80;1.23;;;5.50;87.10;;;;;;5091694;28;20032;-80
2021/12/02 00:46:24;;;;;;;3.90;1.10;;;5.50;87.10;;;;;;5092143;28;20105;-80
2021/12/02 00:48:50;;;;;;;7.13;1.70;;;5.50;87.10;;;;;;5093252;28;20035;-81
2021/12/02 00:51:18;;;;;;;9.25;1.55;;;5.50;87.10;;;;;;5091892;28;20024;-81
2021/12/02 00:53:51;;;;;;;12.52;1.70;;;5.50;87.00;;;;;;5092062;28;20115;-80
2021/12/02 00:56:37;;;;;;;5.80;1.45;;;5.50;87.00;;;;;;5093901;28;20074;-82
2021/12/02 00:59:03;;;;;;;6.03;1.65;;;5.40;86.70;;;;;;5094179;28;20032;-82
2021/12/02 01:01:35;;;;;;;5.25;1.42;;;5.20;86.30;;;;;;5094270;28;20055;-81
2021/12/02 01:04:09;;;;;;;5.30;1.20;;;4.90;86.90;;;;;;5090546;28;20109;-82
2021/12/02 01:06:35;;;;;;;4.93;1.50;;;4.70;87.80;;;;;;5096668;28;20050;-81
2021/12/02 01:09:02;;;;;;;6.50;1.52;;;4.60;88.40;;;;;;5096653;28;20111;-81
2021/12/02 01:11:28;;;;;;;5.75;1.40;;;4.60;88.70;;;;;;5096160;28;20095;-80
2021/12/02 01:13:54;;;;;;;3.95;1.40;;;4.70;88.90;;;;;;5095859;28;20028;-80
2021/12/02 01:16:22;;;;;;;5.30;1.45;;;4.60;88.90;;;;;;5095803;28;20452;-80
2021/12/02 01:18:48;;;;;;;3.58;0.95;;;4.60;89.00;;;;;;5095708;28;20058;-80
2021/12/02 01:21:17;;;;;;;3.90;1.23;;;4.60;89.30;;;;;;5095499;28;20042;-80
2021/12/02 01:23:44;;;;;;;1.23;0.60;;;4.60;89.40;;;;;;5096293;28;20107;-81
2021/12/02 01:26:10;;;;;;;3.75;0.95;;;4.70;89.60;;;;;;5096310;28;20028;-80
2021/12/02 01:28:37;;;;;;;3.55;1.10;;;4.70;89.70;;;;;;5095093;28;20024;-79
2021/12/02 01:31:04;;;;;;;4.65;0.98;;;4.70;89.70;;;;;;5095098;28;20060;-79
2021/12/02 01:33:32;;;;;;;3.47;1.35;;;4.70;89.90;;;;;;5095073;28;20035;-80
2021/12/02 01:36:10;;;;;;;5.78;1.05;;;4.70;90.00;;;;;;5095024;28;20032;-81
2021/12/02 01:38:36;;;;;;;3.47;0.88;;;4.80;90.00;;;;;;5095147;28;20031;-81
2021/12/02 01:41:04;;;;;;;4.35;1.33;;;4.80;90.00;;;;;;5095172;28;20052;-81
2021/12/02 01:43:42;;;;;;;2.83;1.00;;;4.80;90.10;;;;;;5095018;28;20492;-81
2021/12/02 01:46:08;;;;;;;3.47;1.35;;;4.90;90.10;;;;;;5094857;28;20050;-81
2021/12/02 01:48:38;;;;;;;2.65;0.90;;;4.90;90.10;;;;;;5095078;28;20024;-81
2021/12/02 01:51:07;;;;;;;3.20;1.00;;;5.00;90.20;;;;;;5094759;28;20020;-81
2021/12/02 01:53:39;;;;;;;5.75;1.38;;;5.00;90.10;;;;;;5096339;28;20028;-81
2021/12/02 01:56:15;;;;;;;4.53;1.20;;;5.00;90.40;;;;;;5094978;28;20461;-81
2021/12/02 01:58:47;;;;;;;5.47;1.33;;;5.00;90.20;;;;;;5096094;28;20430;-81
2021/12/02 02:01:20;;;;;;;7.03;1.35;;;5.00;90.10;;;;;;5095149;28;20030;-81
2021/12/02 02:03:48;;;;;;;4.07;1.02;;;5.00;90.10;;;;;;5094800;28;20038;-81
2021/12/02 02:06:16;;;;;;;4.43;1.00;;;5.00;90.20;;;;;;5096861;28;20036;-81
2021/12/02 02:08:46;;;;;;;5.97;1.15;;;5.00;90.20;;;;;;5095084;28;20344;-81
2021/12/02 02:11:12;;;;;;;2.67;1.30;;;5.00;90.20;;;;;;5096058;28;20045;-81
2021/12/02 02:13:41;;;;;;;4.60;1.33;;;5.00;90.30;;;;;;5095340;28;20027;-80
2021/12/02 02:16:07;;;;;;;4.97;1.33;;;5.00;90.30;;;;;;5095184;28;20456;-81
2021/12/02 02:18:32;;;;;;;4.18;1.10;;;5.00;90.30;;;;;;5094627;28;20030;-81
2021/12/02 02:23:26;;;;;;;4.60;1.00;;;4.90;90.30;;;;;;5095955;28;20051;-81
2021/12/02 02:25:52;;;;;;;4.10;1.17;;;4.90;90.40;;;;;;5095633;28;20065;-80
2021/12/02 02:28:18;;;;;;;2.95;0.90;;;4.90;90.80;;;;;;5095756;28;20028;-81
2021/12/02 02:30:45;;;;;;;3.85;1.20;;;4.80;90.50;;;;;;5095467;28;20093;-81
2021/12/02 02:33:12;;;;;;;3.72;0.82;;;4.80;90.60;;;;;;5094508;28;20024;-81
2021/12/02 02:35:39;;;;;;;1.98;0.90;;;4.80;90.60;;;;;;5094071;28;20553;-81
2021/12/02 02:38:05;;;;;;;4.47;1.08;;;4.80;90.70;;;;;;5094508;28;20450;-80
2021/12/02 02:40:32;;;;;;;7.32;1.33;;;4.80;90.70;;;;;;5094001;28;20027;-80
2021/12/02 02:46:25;;;;;;;4.85;1.20;;;4.70;90.70;;;;;;5095865;28;20062;-80
2021/12/02 02:48:51;;;;;;;3.97;1.42;;;4.80;90.70;;;;;;5096150;28;20035;-80
2021/12/02 02:51:17;;;;;;;4.07;1.13;;;4.80;90.70;;;;;;5095895;28;20483;-79
2021/12/02 02:53:44;;;;;;;4.38;1.35;;;4.80;90.70;;;;;;5094184;28;20031;-80
2021/12/02 02:56:14;;;;;;;4.30;1.25;;;4.80;90.70;;;;;;5094104;28;20034;-80
2021/12/02 03:06:53;;;;;;;3.55;0.90;;;4.70;90.70;;;;;;5095405;28;20048;-80
2021/12/02 03:12:06;;;;;;;2.28;0.88;;;4.70;90.80;;;;;;5094854;28;20032;-81
2021/12/02 03:16:38;;;;;;;3.88;0.88;;;4.70;90.80;;;;;;5093400;28;20032;-80
2021/12/02 03:17:20;;;;;;;4.88;0.73;;;4.60;90.80;;;;;;5095124;28;20032;-81
2021/12/02 03:19:47;;;;;;;4.90;0.85;;;4.60;90.80;;;;;;5094234;28;20111;-80
2021/12/02 03:22:14;;;;;;;2.15;0.85;;;4.60;90.80;;;;;;5093555;28;20432;-80
2021/12/02 03:24:40;;;;;;;2.67;0.60;;;4.70;90.80;;;;;;5094230;28;20492;-81
2021/12/02 03:27:06;;;;;;;0.93;0.70;;;4.70;90.80;;;;;;5093036;28;20039;-80
2021/12/02 03:29:32;;;;;;;3.20;0.70;;;4.60;90.70;;;;;;5092787;28;20024;-80
2021/12/02 03:31:58;;;;;;;3.30;0.60;;;4.60;90.70;;;;;;5093047;28;20035;-80
2021/12/02 03:34:24;;;;;;;1.67;0.55;;;4.50;90.70;;;;;;5092984;28;20059;-80
2021/12/02 03:36:50;;;;;;;1.65;0.70;;;4.50;90.80;;;;;;5092847;28;20024;-80
2021/12/02 03:39:16;;;;;;;2.42;0.50;;;4.50;90.80;;;;;;5092965;28;20029;-80
2021/12/02 03:41:42;;;;;;;1.77;0.45;;;4.50;90.90;;;;;;5092687;28;20020;-80
2021/12/02 03:44:08;;;;;;;1.65;0.60;;;4.50;90.90;;;;;;5092778;28;20039;-80
2021/12/02 03:46:34;;;;;;;3.10;0.60;;;4.50;90.90;;;;;;5092705;28;20039;-80
2021/12/02 03:49:00;;;;;;;3.33;0.60;;;4.50;90.90;;;;;;5093132;28;20488;-80
2021/12/02 03:51:26;;;;;;;3.40;0.40;;;4.50;90.80;;;;;;5094621;28;20027;-80
2021/12/02 03:53:52;;;;;;;1.58;0.40;;;4.50;90.70;;;;;;5092938;28;20028;-80
2021/12/02 03:56:19;;;;;;;3.60;0.40;;;4.50;91.00;;;;;;5093205;28;20369;-80
2021/12/02 03:58:46;;;;;;;2.08;0.40;;;4.40;90.60;;;;;;5093034;28;20024;-80
2021/12/02 04:01:13;;;;;;;2.90;0.63;;;4.40;90.70;;;;;;5092798;28;20088;-80
2021/12/02 04:03:39;;;;;;;1.25;0.40;;;4.40;90.70;;;;;;5092548;28;20502;-80
2021/12/02 04:06:06;;;;;;;2.58;0.60;;;4.30;90.70;;;;;;5092696;28;20126;-80
2021/12/02 04:11:22;;;;;;;3.17;0.60;;;4.30;90.80;;;;;;5094321;28;20028;-81
2021/12/02 04:14:06;;;;;;;2.15;0.70;;;4.30;90.90;;;;;;5093816;28;20107;-80
2021/12/02 04:16:36;;;;;;;0.50;0.30;;;4.20;90.90;;;;;;5093624;28;20028;-79
2021/12/02 04:19:03;;;;;;;0.65;0.30;;;4.20;90.90;;;;;;5093791;28;20035;-80
2021/12/02 04:21:29;;;;;;;1.60;0.30;;;4.20;90.80;;;;;;5093673;28;20028;-80
2021/12/02 04:23:55;;;;;;;3.58;0.43;;;4.20;90.90;;;;;;5093544;28;20515;-81
2021/12/02 04:26:21;;;;;;;1.67;0.50;;;4.20;90.90;;;;;;5092234;28;20031;-80
2021/12/02 04:28:46;;;;;;;0.50;0.30;;;4.20;90.90;;;;;;5092454;28;20107;-80
2021/12/02 04:31:12;;;;;;;0.73;0.38;;;4.20;90.90;;;;;;5093349;28;20545;-79
2021/12/02 04:33:38;;;;;;;0.98;0.38;;;4.20;90.90;;;;;;5092112;28;20118;-80
2021/12/02 04:36:04;;;;;;;1.00;0.30;;;4.20;90.90;;;;;;5094215;28;20035;-80
2021/12/02 04:38:30;;;;;;;0.68;0.25;;;4.20;90.90;;;;;;5092199;28;20020;-80
2021/12/02 04:40:56;;;;;;;0.52;0.20;;;4.10;90.90;;;;;;5096229;28;20391;-80
2021/12/02 04:43:22;;;;;;;2.60;0.40;;;4.10;90.90;;;;;;5096115;28;20122;-81
2021/12/02 04:45:48;;;;;;;0.98;0.30;;;4.20;91.00;;;;;;5096292;28;20035;-81
2021/12/02 04:48:15;;;;;;;2.35;0.40;;;4.10;90.90;;;;;;5096505;28;20024;-82
2021/12/02 04:50:41;;;;;;;3.25;0.30;;;4.10;90.90;;;;;;5096118;28;20536;-80
2021/12/02 04:53:07;;;;;;;1.67;0.35;;;4.10;90.90;;;;;;5096845;28;20089;-80
2021/12/02 04:55:33;;;;;;;0.73;0.30;;;4.20;90.90;;;;;;5095938;28;20024;-80
2021/12/02 04:57:59;;;;;;;1.80;0.30;;;4.10;91.10;;;;;;5096058;28;20077;-80
2021/12/02 05:00:25;;;;;;;1.67;0.30;;;4.10;90.90;;;;;;5096595;28;20058;-80
2021/12/02 05:02:51;;;;;;;1.23;0.50;;;4.10;90.80;;;;;;5095838;28;20082;-80
2021/12/02 05:05:16;;;;;;;0.70;0.40;;;4.10;90.80;;;;;;5097111;28;20036;-81
2021/12/02 05:07:42;;;;;;;4.07;0.55;;;4.10;90.90;;;;;;5097501;28;20522;-81
2021/12/02 05:10:09;;;;;;;0.57;0.32;;;4.10;90.90;;;;;;5096498;28;20024;-81
2021/12/02 05:12:34;;;;;;;3.35;0.65;;;4.10;90.90;;;;;;5097221;28;20028;-81
2021/12/02 05:15:01;;;;;;;1.35;0.40;;;4.10;90.90;;;;;;5095932;28;20032;-81
2021/12/02 05:17:26;;;;;;;2.05;0.68;;;4.10;90.90;;;;;;5096741;28;20032;-81
2021/12/02 05:19:52;;;;;;;1.25;0.60;;;4.10;90.90;;;;;;5097180;28;20537;-81
2021/12/02 05:22:18;;;;;;;2.15;0.90;;;4.20;90.90;;;;;;5095949;28;20032;-80
2021/12/02 05:24:44;;;;;;;1.77;0.70;;;4.20;90.90;;;;;;5096855;28;20034;-80
2021/12/02 05:27:12;;;;;;;3.22;0.63;;;4.20;90.80;;;;;;5095634;28;20468;-80
2021/12/02 05:29:37;;;;;;;2.25;0.70;;;4.20;90.80;;;;;;5096756;28;20030;-80
2021/12/02 05:32:03;;;;;;;2.55;0.60;;;4.20;90.80;;;;;;5096322;28;20032;-81
2021/12/02 05:37:51;;;;;;;2.13;0.50;;;4.10;90.60;;;;;;5097241;28;20499;-81
2021/12/02 05:40:17;;;;;;;4.32;0.90;;;4.00;90.60;;;;;;5095622;28;20450;-82
2021/12/02 05:46:06;;;;;;;1.10;0.40;;;3.90;90.60;;;;;;5097427;28;20047;-82
2021/12/02 05:48:32;;;;;;;3.10;0.40;;;3.90;90.70;;;;;;5095340;28;20020;-82
2021/12/02 05:50:57;;;;;;;1.55;0.43;;;3.90;90.80;;;;;;5095740;28;20027;-81
2021/12/02 05:53:23;;;;;;;0.43;0.35;;;3.90;90.80;;;;;;5094355;28;20541;-81
2021/12/02 05:55:49;;;;;;;2.17;0.43;;;3.80;90.80;;;;;;5095356;28;20391;-82
2021/12/02 05:58:15;;;;;;;0.20;0.20;;;3.80;90.90;;;;;;5095219;28;20062;-82
2021/12/02 06:00:41;;;;;;;1.25;0.57;;;3.70;90.90;;;;;;5095293;28;20032;-81
2021/12/02 06:03:07;;;;;;;2.10;0.50;;;3.70;90.90;;;;;;5096491;28;20105;-80
2021/12/02 06:05:33;;;;;;;1.33;0.30;;;3.70;91.00;;;;;;5095467;28;20449;-81
2021/12/02 06:08:02;;;;;;;1.20;0.22;;;3.70;91.00;;;;;;5094731;28;20142;-81
2021/12/02 06:13:49;;;;;;;2.35;0.50;;;3.70;91.10;;;;;;5096357;28;20027;-81
2021/12/02 06:16:15;;;;;;;1.77;0.40;;;3.70;91.00;;;;;;5096948;28;20024;-80
2021/12/02 06:18:41;;;;;;;1.90;0.50;;;3.80;91.00;;;;;;5095224;28;20028;-80
2021/12/02 06:21:06;;;;;;;1.58;0.50;;;3.70;91.00;;;;;;5094970;28;20028;-80
2021/12/02 06:23:32;;;;;;;1.42;0.50;;;3.70;91.00;;;;;;5095951;28;20040;-79
2021/12/02 06:25:57;;;;;;;1.17;0.38;;;3.70;91.00;;;;;;5094425;28;20024;-80
2021/12/02 06:28:23;;;;;;;1.77;0.60;;;3.70;91.00;;;;;;5094278;28;20120;-80
2021/12/02 06:30:49;;;;;;;3.17;0.52;;;3.70;91.00;;;;;;5094521;28;20476;-81
2021/12/02 06:33:17;;;;;;;1.60;0.40;;;3.60;91.00;;;;;;5095709;28;20111;-81
2021/12/02 06:35:43;;;;;;;2.70;0.30;;;3.70;91.10;;;;;;5094225;28;20024;-80
2021/12/02 06:38:10;;;;;;;1.75;0.52;;;3.80;91.10;;;;;;5094380;28;20031;-80
2021/12/02 06:40:37;;;;;;;2.38;0.52;;;3.70;91.00;;;;;;5094404;28;20052;-81
2021/12/02 06:43:04;;;;;;;3.25;0.70;;;3.80;91.10;;;;;;5094073;28;20035;-80
2021/12/02 06:45:30;;;;;;;2.15;0.70;;;3.80;91.10;;;;;;5091414;28;20036;-81
2021/12/02 06:47:59;;;;;;;3.83;0.60;;;3.90;91.00;;;;;;5095548;28;20484;-80
2021/12/02 06:50:26;;;;;;;1.48;0.77;;;3.90;91.00;;;;;;5096402;28;20089;-81
2021/12/02 06:52:53;;;;;;;1.30;0.60;;;3.90;91.00;;;;;;5094809;28;20023;-80
2021/12/02 06:55:20;;;;;;;3.42;0.82;;;4.00;91.00;;;;;;5094391;28;20593;-80
2021/12/02 06:57:46;;;;;;;1.17;0.73;;;4.00;91.00;;;;;;5095293;28;20035;-80
2021/12/02 07:00:14;;;;;;;2.50;1.20;;;4.00;90.90;;;;;;5095135;28;20508;-80
2021/12/02 07:02:41;;;;;;;2.30;0.90;;;4.00;90.90;;;;;;5094906;28;20035;-80
2021/12/02 07:05:09;;;;;;;2.97;0.95;;;4.00;90.90;;;;;;5094389;28;20028;-82
2021/12/02 07:07:38;;;;;;;1.20;0.73;;;3.90;90.90;;;;;;5096820;28;20040;-79
2021/12/02 07:10:06;;;;;;;1.80;0.90;;;3.90;90.90;;;;;;5098978;28;20432;-80
2021/12/02 07:12:33;;;;;;;1.40;0.77;;;3.90;91.00;;;;;;5096639;28;20016;-80
2021/12/02 07:15:06;;;;;;;1.52;0.80;;;3.80;91.00;;;;;;5095915;28;20120;-81
2021/12/02 07:17:32;;;;;;;5.57;1.73;;;3.80;91.00;;;;;;5095051;28;20023;-79
2021/12/02 07:19:59;;;;;;;3.67;1.50;;;3.80;91.00;;;;;;5094609;28;20074;-80
2021/12/02 07:22:25;;;;;;;1.73;1.20;;;3.80;91.30;;;;;;5094352;28;20491;-80
2021/12/02 07:24:50;;;;;;;4.35;2.20;;;3.80;91.10;;;;;;5094730;28;20024;-82
2021/12/02 07:27:16;;;;;;;1.98;1.38;;;3.70;91.10;;;;;;5095212;28;20020;-81
2021/12/02 07:29:42;;;;;;;4.07;1.40;;;3.80;91.10;;;;;;5096766;28;20051;-81
2021/12/02 07:32:10;;;;;;;3.58;1.60;;;3.80;91.10;;;;;;5095351;28;20016;-82
2021/12/02 07:34:39;;;;;;;2.72;1.52;;;3.80;91.10;;;;;;5094561;28;20020;-81
2021/12/02 07:37:05;;;;;;;4.22;1.60;;;3.80;91.10;;;;;;5093534;28;20032;-81
2021/12/02 07:39:30;;;;;;;2.83;1.40;;;3.70;91.10;;;;;;5094715;28;20081;-81
2021/12/02 07:41:56;;;;;;;3.50;1.50;;;3.70;91.10;;;;;;5094385;28;20150;-81
2021/12/02 07:44:22;;;;;;;1.35;1.25;;;3.80;91.10;;;;;;5093970;28;20028;-82
2021/12/02 07:46:49;;;;;;;16.35;2.47;;;3.80;91.10;;;;;;5095445;28;20016;-81
2021/12/02 07:49:14;;;;;;;2.13;1.50;;;3.80;91.10;;;;;;5095811;28;20024;-82
2021/12/02 07:51:43;;;;;;;2.13;1.38;;;3.80;91.00;;;;;;5090996;28;20039;-81
2021/12/02 07:54:11;;;;;;;3.40;1.30;;;3.80;91.00;;;;;;5094326;28;20031;-82
2021/12/02 07:56:37;;;;;;;4.25;1.58;;;3.80;91.00;;;;;;5094411;28;20472;-81
2021/12/02 07:59:03;;;;;;;2.60;1.50;;;3.80;91.00;;;;;;5093815;28;20034;-80
2021/12/02 08:01:29;;;;;;;3.40;1.50;;;3.80;91.00;;;;;;5095737;28;20059;-81
2021/12/02 08:03:55;;;;;;;3.92;1.38;;;3.90;91.10;;;;;;5095421;28;20036;-81
2021/12/02 08:06:21;;;;;;;1.55;0.95;;;4.00;91.00;;;;;;5096699;28;20136;-81
2021/12/02 08:08:47;;;;;;;2.45;1.10;;;4.00;91.00;;;;;;5095945;28;20043;-81
2021/12/02 08:11:13;;;;;;;3.22;1.30;;;4.10;90.90;;;;;;5095463;28;20028;-81
2021/12/02 08:13:39;;;;;;;1.80;1.15;;;4.10;90.90;;;;;;5095555;28;20055;-81
2021/12/02 08:16:07;;;;;;;3.25;1.30;;;4.20;90.90;;;;;;5094241;28;20156;-81
2021/12/02 08:18:33;;;;;;;3.85;1.30;;;4.20;90.80;;;;;;5095119;28;20043;-78
2021/12/02 08:20:59;;;;;;;5.95;1.30;;;4.20;90.80;;;;;;5094232;28;20032;-81
2021/12/02 08:23:26;;;;;;;3.65;1.63;;;4.30;90.80;;;;;;5093950;28;20038;-81
2021/12/02 08:25:54;;;;;;;2.22;1.42;;;4.30;90.70;;;;;;5092995;28;20514;-80
2021/12/02 08:28:20;;;;;;;2.33;1.42;;;4.30;90.70;;;;;;5091910;28;20028;-81
2021/12/02 08:30:46;;;;;;;5.13;1.40;;;4.30;90.70;;;;;;5091569;28;20024;-81
2021/12/02 08:33:14;;;;;;;5.18;1.10;;;4.30;90.60;;;;;;5092181;28;20198;-80
2021/12/02 08:35:40;;;;;;;5.40;1.75;;;4.40;90.60;;;;;;5093207;28;20022;-81
2021/12/02 08:38:09;;;;;;;2.72;1.27;;;4.40;90.60;;;;;;5091910;28;20510;-81
2021/12/02 08:40:36;;;;;;;3.42;1.45;;;4.40;90.50;;;;;;5092084;28;20027;-80
2021/12/02 08:43:08;;;;;;;4.65;1.45;;;4.40;90.50;;;;;;5091830;28;20035;-82
2021/12/02 08:45:35;;;;;;;2.05;1.25;;;4.40;90.40;;;;;;5093469;28;20028;-80
2021/12/02 08:48:02;;;;;;;2.47;1.40;;;4.40;90.40;;;;;;5093691;28;20556;-81
2021/12/02 08:50:29;;;;;;;4.93;1.70;;;4.40;90.40;;;;;;5093510;28;20069;-81
2021/12/02 08:52:55;;;;;;;6.00;1.67;;;4.40;90.40;;;;;;5093913;28;20036;-82
2021/12/02 08:55:23;;;;;;;3.10;1.30;;;4.40;90.30;;;;;;5092530;28;20173;-82
2021/12/02 08:57:51;;;;;;;5.60;1.50;;;4.30;90.40;;;;;;5092509;28;20035;-82
2021/12/02 09:00:26;;;;;;;6.97;1.70;;;4.30;90.40;;;;;;5093406;28;20024;-81
2021/12/02 09:02:55;;;;;;;3.67;1.92;;;4.30;90.50;;;;;;5091933;28;20024;-81
2021/12/02 09:05:21;;;;;;;3.58;1.80;;;4.30;90.50;;;;;;5094040;28;20031;-81
2021/12/02 09:07:47;;;;;;;2.45;1.40;;;4.30;90.40;;;;;;5091775;28;20051;-82
2021/12/02 09:10:13;;;;;;;2.97;1.63;;;4.40;90.50;;;;;;5092316;28;20024;-82
2021/12/02 09:12:39;;;;;;;2.97;1.70;;;4.40;90.50;;;;;;5092157;28;20054;-81
2021/12/02 09:15:09;;;;;;;3.15;1.70;;;4.40;90.40;;;;;;5094675;28;20020;-81
2021/12/02 09:17:38;;;;;;;4.57;2.17;;;4.50;90.40;;;;;;5094319;28;20085;-80
2021/12/02 09:20:06;;;;;;;5.07;1.85;;;4.50;90.50;;;;;;5094849;28;20130;-81
2021/12/02 09:22:32;;;;;;;3.13;1.60;;;4.50;90.30;;;;;;5095455;28;20116;-81
2021/12/02 09:24:57;;;;;;;2.88;1.63;;;4.50;90.40;;;;;;5094128;28;20059;-80
2021/12/02 09:27:23;;;;;;;4.45;1.40;;;4.50;90.40;;;;;;5097990;28;20592;-79
2021/12/02 09:29:49;;;;;;;2.25;1.42;;;4.50;90.40;;;;;;5098664;28;20027;-80
2021/12/02 09:32:15;;;;;;;3.58;1.50;;;4.50;90.40;;;;;;5097301;28;20406;-80
2021/12/02 09:34:40;;;;;;;3.85;1.52;;;4.60;90.40;;;;;;5098289;28;20024;-78
2021/12/02 09:37:06;;;;;;;3.40;1.40;;;4.60;90.50;;;;;;5098152;28;20138;-81
2021/12/02 09:39:34;;;;;;;4.28;1.52;;;4.70;90.40;;;;;;5097817;28;20028;-81
2021/12/02 09:42:00;;;;;;;4.65;1.55;;;4.70;90.60;;;;;;5098086;28;20028;-81
2021/12/02 09:44:28;;;;;;;5.30;1.30;;;4.80;90.30;;;;;;5096976;28;20555;-80
2021/12/02 09:46:56;;;;;;;4.72;1.35;;;4.90;90.30;;;;;;5097915;28;20562;-80
2021/12/02 09:49:23;;;;;;;2.25;1.15;;;5.00;90.10;;;;;;5096619;28;20031;-81
2021/12/02 09:54:21;;;;;;;1.75;1.13;;;5.20;89.90;;;;;;5097335;28;20047;-81
2021/12/02 09:56:52;;;;;;;3.03;1.20;;;5.20;89.80;;;;;;5096156;28;20028;-80
2021/12/02 09:59:28;;;;;;;2.03;1.17;;;5.20;89.80;;;;;;5095721;28;20544;-81
2021/12/02 10:01:59;;;;;;;2.55;1.10;;;5.20;89.80;;;;;;5095413;28;20078;-82
2021/12/02 10:04:27;;;;;;;1.63;0.82;;;5.10;89.60;;;;;;5094892;28;20028;-81
2021/12/02 10:07:24;;;;;;;1.38;1.02;;;5.10;89.50;;;;;;5094662;28;20546;-81
2021/12/02 10:10:23;;;;;;;2.50;0.80;;;5.00;89.60;;;;;;5095864;28;20016;-82
2021/12/02 10:13:15;;;;;;;1.25;0.50;;;5.00;89.30;;;;;;5096730;28;20058;-81
2021/12/02 10:15:50;;;;;;;2.70;0.90;;;4.90;89.40;;;;;;5096091;28;20012;-81
2021/12/02 10:18:17;;;;;;;1.00;0.80;;;5.00;89.60;;;;;;5094410;28;20052;-80
2021/12/02 10:20:46;;;;;;;1.90;0.80;;;5.00;89.60;;;;;;5094405;28;20012;-81
2021/12/02 10:23:26;;;;;;;2.53;0.80;;;4.90;89.40;;;;;;5094220;28;20019;-81
2021/12/02 10:26:01;;;;;;;1.00;0.68;;;4.90;89.30;;;;;;5094008;28;20101;-81
2021/12/02 10:28:34;;;;;;;1.00;0.60;;;4.90;89.60;;;;;;5095210;28;20028;-81
2021/12/02 10:31:02;;;;;;;1.10;0.60;;;4.80;89.50;;;;;;5096353;28;20062;-81
2021/12/02 10:33:35;;;;;;;1.70;0.80;;;4.70;89.50;;;;;;5094971;28;20047;-80
2021/12/02 10:36:03;;;;;;;2.17;1.00;;;4.70;89.60;;;;;;5094270;28;20380;-81
2021/12/02 10:38:34;;;;;;;1.15;0.90;;;4.60;89.80;;;;;;5095284;28;20024;-81
2021/12/02 10:41:01;;;;;;;1.85;0.80;;;4.60;89.90;;;;;;5095847;28;20032;-80
2021/12/02 10:43:27;;;;;;;2.35;0.82;;;4.70;90.00;;;;;;5095454;28;20036;-81
2021/12/02 10:46:16;;;;;;;1.75;1.10;;;4.70;90.00;;;;;;5094338;28;20016;-81
2021/12/02 10:48:53;;;;;;;3.22;1.90;;;4.80;89.90;;;;;;5095457;28;20549;-81
2021/12/02 10:51:50;;;;;;;2.38;1.08;;;4.90;89.90;;;;;;5094547;28;20024;-80
2021/12/02 10:54:25;;;;;;;1.40;0.65;;;4.90;89.50;;;;;;5095928;28;20052;-81
2021/12/02 10:56:54;;;;;;;2.05;0.90;;;5.00;89.60;;;;;;5094386;28;20123;-80
2021/12/02 10:59:35;;;;;;;1.75;1.00;;;5.10;89.40;;;;;;5095378;28;20020;-80
2021/12/02 11:02:23;;;;;;;1.88;1.00;;;5.10;89.10;;;;;;5095435;28;20056;-80
2021/12/02 11:05:05;;;;;;;2.88;0.90;;;5.20;89.00;;;;;;5095768;28;20036;-81
2021/12/02 11:07:39;;;;;;;1.88;0.90;;;5.30;89.00;;;;;;5095765;28;20385;-80
2021/12/02 11:10:09;;;;;;;1.85;0.82;;;5.40;88.80;;;;;;5096583;28;20023;-80
2021/12/02 11:15:58;;;;;;;3.03;0.90;;;5.70;88.20;;;;;;5097372;28;20101;-82
2021/12/02 11:18:23;;;;;;;3.22;1.05;;;5.80;87.80;;;;;;5095672;28;20494;-82
2021/12/02 11:20:57;;;;;;;0.90;0.60;;;5.80;87.90;;;;;;5095107;28;20021;-82
2021/12/02 11:23:36;;;;;;;1.63;0.73;;;5.90;87.40;;;;;;5093533;28;20468;-81
2021/12/02 11:26:07;;;;;;;2.88;0.93;;;5.90;87.00;;;;;;5092512;28;20024;-81
2021/12/02 11:28:35;;;;;;;2.25;0.70;;;5.80;86.90;;;;;;5093769;28;20476;-81
2021/12/02 11:31:16;;;;;;;1.15;0.63;;;5.80;86.80;;;;;;5092492;28;20103;-81
2021/12/02 11:33:45;;;;;;;2.67;0.95;;;5.70;86.90;;;;;;5092402;28;20020;-80
2021/12/02 11:36:18;;;;;;;3.90;0.70;;;5.70;87.10;;;;;;5092423;28;20024;-80
2021/12/02 11:38:43;;;;;;;1.38;0.80;;;5.70;87.40;;;;;;5092226;28;20379;-81
2021/12/02 11:41:09;;;;;;;1.92;0.63;;;5.80;87.60;;;;;;5093934;28;20126;-81
2021/12/02 11:43:39;;;;;;;1.00;0.55;;;5.80;87.50;;;;;;5093982;28;20402;-81
2021/12/02 11:46:07;;;;;;;2.58;0.70;;;5.90;87.50;;;;;;5092711;28;20016;-80
2021/12/02 11:48:38;;;;;;;3.25;0.75;;;5.90;87.50;;;;;;5092668;28;20391;-81
2021/12/02 11:51:07;;;;;;;2.00;0.80;;;5.90;87.20;;;;;;5092945;28;20016;-80
2021/12/02 11:53:33;;;;;;;2.72;0.70;;;5.80;87.30;;;;;;5091975;28;20024;-81
2021/12/02 11:56:03;;;;;;;1.02;0.65;;;5.80;87.40;;;;;;5093130;28;20028;-80
2021/12/02 11:58:29;;;;;;;1.75;0.55;;;5.90;87.70;;;;;;5092244;28;20024;-80
2021/12/02 12:00:56;;;;;;;1.35;0.50;;;5.80;87.60;;;;;;5093255;28;20023;-80
2021/12/02 12:03:39;;;;;;;1.65;0.60;;;5.80;87.70;;;;;;5092094;28;20020;-81
2021/12/02 12:06:08;;;;;;;3.17;0.83;;;5.80;87.80;;;;;;5093088;28;20084;-80
2021/12/02 12:08:40;;;;;;;1.27;0.50;;;5.80;88.00;;;;;;5093158;28;20284;-80
2021/12/02 12:11:18;;;;;;;0.40;0.40;;;5.90;88.00;;;;;;5093884;28;20178;-81
2021/12/02 12:14:08;;;;;;;0.90;0.30;;;5.90;87.80;;;;;;5093492;28;20048;-81
2021/12/02 12:16:42;;;;;;;0.73;0.40;;;5.90;87.20;;;;;;5091870;28;20028;-81
2021/12/02 12:19:22;;;;;;;0.88;0.20;;;5.80;86.90;;;;;;5093211;28;20047;-81
2021/12/02 12:21:58;;;;;;;1.75;0.32;;;5.60;87.00;;;;;;5093595;28;20020;-81
2021/12/02 12:24:40;;;;;;;0.77;0.50;;;5.60;87.00;;;;;;5092073;28;20511;-80
2021/12/02 12:27:26;;;;;;;1.02;0.38;;;5.50;87.00;;;;;;5092332;28;20028;-80
2021/12/02 12:30:06;;;;;;;0.73;0.30;;;5.50;86.60;;;;;;5091927;28;20020;-80
2021/12/02 12:32:49;;;;;;;1.35;0.28;;;5.50;86.80;;;;;;5091820;28;20026;-79
2021/12/02 12:35:38;;;;;;;0.65;0.30;;;5.60;86.80;;;;;;5092085;28;20078;-81
2021/12/02 12:38:27;;;;;;;0.20;0.20;;;5.60;86.70;;;;;;5092102;28;20016;-81
2021/12/02 12:40:56;;;;;;;2.97;0.30;;;5.60;86.60;;;;;;5091653;28;20376;-80
2021/12/02 12:43:26;;;;;;;0.38;0.20;;;5.70;86.60;;;;;;5093143;28;20074;-80
2021/12/02 12:46:05;;;;;;;0.30;0.30;;;5.70;86.60;;;;;;5093523;28;20020;-80
2021/12/02 12:48:31;;;;;;;1.55;0.40;;;5.60;86.70;;;;;;5092360;28;20028;-80
2021/12/02 12:51:11;;;;;;;0.90;0.28;;;5.60;86.90;;;;;;5091857;28;20036;-81
2021/12/02 12:53:38;;;;;;;1.27;0.40;;;5.60;87.00;;;;;;5091673;28;20543;-81
2021/12/02 12:56:09;;;;;;;0.82;0.30;;;5.60;86.60;;;;;;5091354;28;20365;-81
2021/12/02 12:58:38;;;;;;;0.73;0.30;;;5.60;86.30;;;;;;5091475;28;20019;-81
2021/12/02 13:01:06;;;;;;;0.20;0.20;;;5.60;86.10;;;;;;5092709;28;20044;-80
2021/12/02 13:07:03;;;;;;;0.50;0.30;;;5.60;86.50;;;;;;5090284;28;20434;-80
2021/12/02 13:09:38;;;;;;;0.55;0.30;;;5.60;86.60;;;;;;5096673;28;20094;-79
2021/12/02 13:12:05;;;;;;;1.13;0.40;;;5.60;86.50;;;;;;5096689;28;20051;-81
2021/12/02 13:14:31;;;;;;;2.17;0.40;;;5.60;86.30;;;;;;5096108;28;20060;-80
2021/12/02 13:16:57;;;;;;;1.42;0.50;;;5.60;86.50;;;;;;5095177;28;20483;-80
2021/12/02 13:19:22;;;;;;;1.85;0.45;;;5.60;86.50;;;;;;5095151;28;20020;-79
2021/12/02 13:21:57;;;;;;;1.30;0.60;;;5.60;86.50;;;;;;5094754;28;20507;-80
2021/12/02 13:24:33;;;;;;;1.80;0.55;;;5.70;86.70;;;;;;5095126;28;20020;-79
2021/12/02 13:27:02;;;;;;;1.65;0.40;;;5.70;86.70;;;;;;5095228;28;20031;-79
2021/12/02 13:29:31;;;;;;;1.90;0.70;;;5.80;86.70;;;;;;5095477;28;20024;-79
2021/12/02 13:32:02;;;;;;;0.68;0.65;;;5.80;86.50;;;;;;5094859;28;20032;-80
2021/12/02 13:34:30;;;;;;;0.77;0.70;;;5.80;86.40;;;;;;5094736;28;20124;-79
2021/12/02 13:37:03;;;;;;;2.15;0.70;;;5.80;86.10;;;;;;5094812;28;20410;-79
2021/12/02 13:39:38;;;;;;;1.38;0.68;;;5.70;86.00;;;;;;5095508;28;20438;-80
2021/12/02 13:42:13;;;;;;;3.47;1.00;;;5.70;85.80;;;;;;5094679;28;20031;-80
2021/12/02 13:44:53;;;;;;;1.00;0.52;;;5.70;86.00;;;;;;5095752;28;20057;-80
2021/12/02 13:47:31;;;;;;;1.25;0.65;;;5.70;86.00;;;;;;5095090;28;20483;-80
2021/12/02 13:49:59;;;;;;;2.50;0.60;;;5.80;86.10;;;;;;5095848;28;20103;-80